createdAt,value
2023-01-25T00:00:30.002Z,3.90
2023-01-25T00:02:56.702Z,3.90
2023-01-25T00:05:23.460Z,3.80
2023-01-25T00:07:50.049Z,3.50
2023-01-25T00:10:16.712Z,3.30
2023-01-25T00:12:43.291Z,3.30
2023-01-25T00:15:10.691Z,3.50
2023-01-25T00:17:37.441Z,3.60
2023-01-25T00:20:04.411Z,3.50
2023-01-25T00:22:31.040Z,3.10
2023-01-25T00:24:57.592Z,3.20
2023-01-25T00:27:24.259Z,3.40
2023-01-25T00:30:47.445Z,3.30
2023-01-25T00:33:16.742Z,3.30
2023-01-25T00:35:45.179Z,3.40
2023-01-25T00:38:29.786Z,3.40
2023-01-25T00:40:58.205Z,3.40
2023-01-25T00:43:25.178Z,3.40
2023-01-25T00:45:52.410Z,3.50
2023-01-25T00:48:19.033Z,3.60
2023-01-25T00:50:45.584Z,3.40
2023-01-25T00:53:12.200Z,3.20
2023-01-25T00:55:38.765Z,3.40
2023-01-25T00:58:05.432Z,3.20
2023-01-25T01:00:32.004Z,3.60
2023-01-25T01:02:58.594Z,3.60
2023-01-25T01:05:25.245Z,3.50
2023-01-25T01:07:51.937Z,3.20
2023-01-25T01:10:18.631Z,3.20
2023-01-25T01:12:45.190Z,3.30
2023-01-25T01:15:11.769Z,3.30
2023-01-25T01:17:38.333Z,3.20
2023-01-25T01:20:05.322Z,3.20
2023-01-25T01:22:31.890Z,3.20
2023-01-25T01:24:58.478Z,3.00
2023-01-25T01:27:25.082Z,3.10
2023-01-25T01:29:51.716Z,3.10
2023-01-25T01:32:18.427Z,3.30
2023-01-25T01:34:45.066Z,3.30
2023-01-25T01:37:11.710Z,3.40
2023-01-25T01:39:38.303Z,3.30
2023-01-25T01:42:04.975Z,3.40
2023-01-25T01:44:49.802Z,3.50
2023-01-25T01:47:31.520Z,3.30
2023-01-25T01:50:04.643Z,3.30
2023-01-25T01:52:35.640Z,3.30
2023-01-25T01:55:08.692Z,3.20
2023-01-25T01:57:41.604Z,3.00
2023-01-25T02:00:12.936Z,3.00
2023-01-25T02:02:40.804Z,3.10
2023-01-25T02:05:12.219Z,2.90
2023-01-25T02:07:39.219Z,2.90
2023-01-25T02:10:09.396Z,2.90
2023-01-25T02:12:38.131Z,2.80
2023-01-25T02:15:06.368Z,2.80
2023-01-25T02:17:35.751Z,2.70
2023-01-25T02:20:11.298Z,2.80
2023-01-25T02:22:53.875Z,2.60
2023-01-25T02:25:21.209Z,2.50
2023-01-25T02:28:16.810Z,2.50
2023-01-25T02:30:44.329Z,2.70
2023-01-25T02:33:11.228Z,2.70
2023-01-25T02:35:42.019Z,2.40
2023-01-25T02:38:11.911Z,2.30
2023-01-25T02:40:49.372Z,2.50
2023-01-25T02:43:16.693Z,2.60
2023-01-25T02:45:47.502Z,2.60
2023-01-25T02:48:14.137Z,2.80
2023-01-25T02:50:40.899Z,2.90
2023-01-25T02:53:07.580Z,2.80
2023-01-25T02:55:34.163Z,2.80
2023-01-25T02:58:00.733Z,2.90
2023-01-25T03:00:27.356Z,2.80
2023-01-25T03:02:53.977Z,2.80
2023-01-25T03:05:20.670Z,2.80
2023-01-25T03:07:47.321Z,2.90
2023-01-25T03:11:13.358Z,2.90
2023-01-25T03:13:40.312Z,3.00
2023-01-25T03:16:12.272Z,3.00
2023-01-25T03:18:40.294Z,3.20
2023-01-25T03:21:12.929Z,2.90
2023-01-25T03:23:40.319Z,2.90
2023-01-25T03:26:11.021Z,2.80
2023-01-25T03:28:38.467Z,2.80
2023-01-25T03:31:06.190Z,2.60
2023-01-25T03:33:33.208Z,2.70
2023-01-25T03:36:00.662Z,2.70
2023-01-25T03:38:27.570Z,2.40
2023-01-25T03:40:54.401Z,2.30
2023-01-25T03:43:21.259Z,2.20
2023-01-25T03:45:59.033Z,2.40
2023-01-25T03:48:26.891Z,2.60
2023-01-25T03:50:56.551Z,2.50
2023-01-25T03:53:29.030Z,2.50
2023-01-25T03:56:11.536Z,2.40
2023-01-25T03:58:39.645Z,2.40
2023-01-25T04:01:07.490Z,2.60
2023-01-25T04:03:34.727Z,2.70
2023-01-25T04:06:01.404Z,2.90
2023-01-25T04:08:28.557Z,2.80
2023-01-25T04:11:03.772Z,2.80
2023-01-25T04:13:31.366Z,2.80
2023-01-25T04:15:58.025Z,2.60
2023-01-25T04:18:24.613Z,2.50
2023-01-25T04:20:55.381Z,2.60
2023-01-25T04:23:23.399Z,2.50
2023-01-25T04:25:58.656Z,2.50
2023-01-25T04:28:26.228Z,2.70
2023-01-25T04:30:54.703Z,2.70
2023-01-25T04:33:21.756Z,2.60
2023-01-25T04:35:48.363Z,2.30
2023-01-25T04:38:15.100Z,2.40
2023-01-25T04:40:43.379Z,2.40
2023-01-25T04:43:10.979Z,2.50
2023-01-25T04:45:37.634Z,2.40
2023-01-25T04:48:09.695Z,2.20
2023-01-25T04:50:40.703Z,2.30
2023-01-25T04:53:08.685Z,2.30
2023-01-25T04:55:35.568Z,2.30
2023-01-25T04:58:03.099Z,2.30
2023-01-25T05:00:31.059Z,2.40
2023-01-25T05:02:58.049Z,2.40
2023-01-25T05:05:24.616Z,2.40
2023-01-25T05:07:51.245Z,2.60
2023-01-25T05:10:17.872Z,2.40
2023-01-25T05:12:44.442Z,2.40
2023-01-25T05:15:11.735Z,2.40
2023-01-25T05:17:38.624Z,2.20
2023-01-25T05:20:05.521Z,2.20
2023-01-25T05:22:32.392Z,2.20
2023-01-25T05:24:59.251Z,2.30
2023-01-25T05:27:26.158Z,2.40
2023-01-25T05:29:52.905Z,2.40
2023-01-25T05:32:21.666Z,2.40
2023-01-25T05:34:48.912Z,2.40
2023-01-25T05:37:18.182Z,2.20
2023-01-25T05:39:45.021Z,2.20
2023-01-25T05:42:14.509Z,2.10
2023-01-25T05:44:41.121Z,2.20
2023-01-25T05:47:12.036Z,2.20
2023-01-25T05:49:38.669Z,2.20
2023-01-25T05:52:05.372Z,2.30
2023-01-25T05:54:31.957Z,2.30
2023-01-25T05:56:58.574Z,2.40
2023-01-25T05:59:25.240Z,2.30
2023-01-25T06:01:53.039Z,2.30
2023-01-25T06:04:19.630Z,2.20
2023-01-25T06:06:46.233Z,2.30
2023-01-25T06:09:13.619Z,2.30
2023-01-25T06:11:42.957Z,2.40
2023-01-25T06:14:09.542Z,2.50
2023-01-25T06:16:36.149Z,2.50
2023-01-25T06:19:05.314Z,2.40
2023-01-25T06:21:32.457Z,2.30
2023-01-25T06:23:59.053Z,2.20
2023-01-25T06:26:25.847Z,2.20
2023-01-25T06:28:53.377Z,2.10
2023-01-25T06:31:20.442Z,2.30
2023-01-25T06:33:48.738Z,2.10
2023-01-25T06:36:18.420Z,2.10
2023-01-25T06:38:50.595Z,2.10
2023-01-25T06:41:18.061Z,2.00
2023-01-25T06:43:44.876Z,2.00
2023-01-25T06:46:15.127Z,2.00
2023-01-25T06:48:42.871Z,2.00
2023-01-25T06:51:14.864Z,2.20
2023-01-25T06:53:43.827Z,2.10
2023-01-25T06:56:13.174Z,2.10
2023-01-25T06:58:40.148Z,2.10
2023-01-25T07:01:27.497Z,2.20
2023-01-25T07:03:56.433Z,2.20
2023-01-25T07:06:23.508Z,2.20
2023-01-25T07:08:50.528Z,2.30
2023-01-25T07:11:18.931Z,2.20
2023-01-25T07:13:46.956Z,2.20
2023-01-25T07:16:18.939Z,2.20
2023-01-25T07:18:45.920Z,2.30
2023-01-25T07:21:15.863Z,2.50
2023-01-25T07:23:43.277Z,2.40
2023-01-25T07:26:30.199Z,2.40
2023-01-25T07:28:58.646Z,2.30
2023-01-25T07:31:25.731Z,2.30
2023-01-25T07:33:57.652Z,2.20
2023-01-25T07:36:24.886Z,2.10
2023-01-25T07:38:55.875Z,2.20
2023-01-25T07:41:24.566Z,2.20
2023-01-25T07:43:51.853Z,2.20
2023-01-25T07:46:18.437Z,2.00
2023-01-25T07:48:49.457Z,2.10
2023-01-25T07:51:24.000Z,2.20
2023-01-25T07:53:53.926Z,2.20
2023-01-25T07:56:23.194Z,2.00
2023-01-25T07:58:49.979Z,2.10
2023-01-25T08:01:18.928Z,2.10
2023-01-25T08:03:47.417Z,1.90
2023-01-25T08:06:14.476Z,2.00
2023-01-25T08:08:44.400Z,2.00
2023-01-25T08:11:18.289Z,2.00
2023-01-25T08:13:46.173Z,1.90
2023-01-25T08:16:17.591Z,2.10
2023-01-25T08:18:47.052Z,2.10
2023-01-25T08:21:13.632Z,2.20
2023-01-25T08:23:40.325Z,2.10
2023-01-25T08:26:09.539Z,2.10
2023-01-25T08:28:36.135Z,2.00
2023-01-25T08:31:11.658Z,2.00
2023-01-25T08:33:39.270Z,1.90
2023-01-25T08:36:07.591Z,2.20
2023-01-25T08:38:34.496Z,2.20
2023-01-25T08:41:16.122Z,2.20
2023-01-25T08:43:44.364Z,2.30
2023-01-25T08:46:11.545Z,2.00
2023-01-25T08:48:38.382Z,1.90
2023-01-25T08:51:08.015Z,2.10
2023-01-25T08:53:34.786Z,2.20
2023-01-25T08:56:10.699Z,2.10
2023-01-25T08:58:40.198Z,2.20
2023-01-25T09:01:08.970Z,2.00
2023-01-25T09:03:40.578Z,1.80
2023-01-25T09:06:08.295Z,1.90
2023-01-25T09:08:35.674Z,2.20
2023-01-25T09:11:07.073Z,2.40
2023-01-25T09:13:33.857Z,2.50
2023-01-25T09:16:09.786Z,2.30
2023-01-25T09:18:37.685Z,2.60
2023-01-25T09:21:15.985Z,2.90
2023-01-25T09:24:05.371Z,2.70
2023-01-25T09:26:34.606Z,2.70
2023-01-25T09:29:01.365Z,2.40
2023-01-25T09:31:29.259Z,2.30
2023-01-25T09:33:57.119Z,2.50
2023-01-25T09:36:23.734Z,2.60
2023-01-25T09:38:50.583Z,2.60
2023-01-25T09:41:32.470Z,2.40
2023-01-25T09:44:15.540Z,2.20
2023-01-25T09:46:49.991Z,2.30
2023-01-25T09:49:44.690Z,2.30
2023-01-25T09:52:38.735Z,2.20
2023-01-25T09:55:14.353Z,2.20
2023-01-25T09:57:45.310Z,2.30
2023-01-25T10:00:20.552Z,2.20
2023-01-25T10:03:11.954Z,1.90
2023-01-25T10:05:45.355Z,2.00
2023-01-25T10:08:42.954Z,1.90
2023-01-25T10:11:21.470Z,1.70
2023-01-25T10:13:48.811Z,1.80
2023-01-25T10:16:47.715Z,1.80
2023-01-25T10:19:34.875Z,1.80
2023-01-25T10:22:08.488Z,1.70
2023-01-25T10:24:53.796Z,1.80
2023-01-25T10:27:42.568Z,2.20
2023-01-25T10:30:28.272Z,2.30
2023-01-25T10:33:01.988Z,2.30
2023-01-25T10:35:38.488Z,2.20
2023-01-25T10:38:28.293Z,2.20
2023-01-25T10:41:02.021Z,2.40
2023-01-25T10:43:28.843Z,2.10
2023-01-25T10:45:55.557Z,1.60
2023-01-25T10:48:33.708Z,1.60
2023-01-25T10:51:01.497Z,1.70
2023-01-25T10:53:44.078Z,1.90
2023-01-25T10:56:10.719Z,1.90
2023-01-25T10:58:43.242Z,2.00
2023-01-25T11:01:23.720Z,2.10
2023-01-25T11:03:50.383Z,2.40
2023-01-25T11:06:30.880Z,2.60
2023-01-25T11:08:57.481Z,2.80
2023-01-25T11:11:36.525Z,2.60
2023-01-25T11:14:16.329Z,2.50
2023-01-25T11:16:47.779Z,2.30
2023-01-25T11:19:43.854Z,2.20
2023-01-25T11:22:19.696Z,2.10
2023-01-25T11:24:47.064Z,2.20
2023-01-25T11:27:22.586Z,1.90
2023-01-25T11:30:08.085Z,1.60
2023-01-25T11:32:34.891Z,1.50
2023-01-25T11:35:01.724Z,1.60
2023-01-25T11:37:52.741Z,1.70
2023-01-25T11:40:28.425Z,1.70
2023-01-25T11:43:11.141Z,1.70
2023-01-25T11:46:02.604Z,1.80
2023-01-25T11:49:09.153Z,1.90
2023-01-25T11:51:43.887Z,1.90
2023-01-25T11:54:39.083Z,1.80
2023-01-25T11:57:23.866Z,1.90
2023-01-25T11:59:54.668Z,1.60
2023-01-25T12:03:07.625Z,1.70
2023-01-25T12:06:04.059Z,1.70
2023-01-25T12:08:43.127Z,1.70
2023-01-25T12:11:21.230Z,1.90
2023-01-25T12:14:05.884Z,1.80
2023-01-25T12:16:47.590Z,1.70
2023-01-25T12:19:20.223Z,1.60
2023-01-25T12:22:11.363Z,1.60
2023-01-25T12:25:07.463Z,1.70
2023-01-25T12:28:04.195Z,1.50
2023-01-25T12:31:01.954Z,1.60
2023-01-25T12:33:45.270Z,1.60
2023-01-25T12:36:35.748Z,1.60
2023-01-25T12:39:05.067Z,1.50
2023-01-25T12:41:59.435Z,1.50
2023-01-25T12:44:33.448Z,1.30
2023-01-25T12:47:10.548Z,1.40
2023-01-25T12:49:42.421Z,1.50
2023-01-25T12:52:39.405Z,1.50
2023-01-25T12:55:12.375Z,1.40
2023-01-25T12:57:48.874Z,1.40
2023-01-25T13:00:43.316Z,1.30
2023-01-25T13:03:21.749Z,1.40
2023-01-25T13:06:11.140Z,1.60
2023-01-25T13:09:12.901Z,1.80
2023-01-25T13:11:45.150Z,1.90
2023-01-25T13:14:18.035Z,1.90
2023-01-25T13:17:08.505Z,2.00
2023-01-25T13:19:36.664Z,1.90
2023-01-25T13:22:04.109Z,1.80
2023-01-25T13:24:35.255Z,1.90
2023-01-25T13:27:04.960Z,1.80
2023-01-25T13:29:42.830Z,2.00
2023-01-25T13:32:34.010Z,2.20
2023-01-25T13:35:01.738Z,2.20
2023-01-25T13:37:33.691Z,2.20
2023-01-25T13:40:22.887Z,2.20
2023-01-25T13:43:20.676Z,2.20
2023-01-25T13:45:50.310Z,2.20
2023-01-25T13:48:25.454Z,2.30
2023-01-25T13:50:58.245Z,2.10
2023-01-25T13:53:33.094Z,1.80
2023-01-25T13:55:59.756Z,1.90
2023-01-25T13:58:32.221Z,1.90
2023-01-25T14:01:07.994Z,1.80
2023-01-25T14:03:45.815Z,1.90
2023-01-25T14:06:37.790Z,1.90
2023-01-25T14:09:10.515Z,2.00
2023-01-25T14:11:45.340Z,2.00
2023-01-25T14:14:20.676Z,2.20
2023-01-25T14:17:00.359Z,2.20
2023-01-25T14:19:29.773Z,2.00
2023-01-25T14:22:20.437Z,1.90
2023-01-25T14:25:04.751Z,1.80
2023-01-25T14:27:31.426Z,1.90
2023-01-25T14:29:58.088Z,1.90
2023-01-25T14:32:27.423Z,1.70
2023-01-25T14:34:54.043Z,1.80
2023-01-25T14:37:22.129Z,1.90
2023-01-25T14:39:50.808Z,2.10
2023-01-25T14:42:18.273Z,2.10
2023-01-25T14:44:45.979Z,2.30
2023-01-25T14:47:32.404Z,2.20
2023-01-25T14:50:34.541Z,2.40
2023-01-25T14:53:20.270Z,2.30
2023-01-25T14:55:48.482Z,2.20
2023-01-25T14:58:21.369Z,2.20
2023-01-25T15:01:00.434Z,2.10
2023-01-25T15:03:28.866Z,2.20
2023-01-25T15:05:59.760Z,2.00
2023-01-25T15:08:28.372Z,1.90
2023-01-25T15:10:57.789Z,1.60
2023-01-25T15:13:26.378Z,2.00
2023-01-25T15:16:01.515Z,2.10
2023-01-25T15:18:53.212Z,1.90
2023-01-25T15:21:28.564Z,1.90
2023-01-25T15:24:06.552Z,1.90
2023-01-25T15:26:35.069Z,1.50
2023-01-25T15:29:07.632Z,1.40
2023-01-25T15:31:37.055Z,1.40
2023-01-25T15:34:05.033Z,1.30
2023-01-25T15:36:33.180Z,1.10
2023-01-25T15:38:59.841Z,1.20
2023-01-25T15:41:26.633Z,1.20
2023-01-25T15:43:53.252Z,1.20
2023-01-25T15:46:25.855Z,1.10
2023-01-25T15:48:53.091Z,1.20
2023-01-25T15:51:20.153Z,1.10
2023-01-25T15:53:47.076Z,0.90
2023-01-25T15:56:19.527Z,0.90
2023-01-25T15:58:50.267Z,0.80
2023-01-25T16:01:17.497Z,1.00
2023-01-25T16:03:44.378Z,1.00
2023-01-25T16:06:36.954Z,1.00
2023-01-25T16:09:29.726Z,1.10
2023-01-25T16:12:01.334Z,1.20
2023-01-25T16:14:30.401Z,1.10
2023-01-25T16:17:02.308Z,1.10
2023-01-25T16:19:29.928Z,1.20
2023-01-25T16:21:56.987Z,1.20
2023-01-25T16:24:23.694Z,1.30
2023-01-25T16:26:58.371Z,1.10
2023-01-25T16:29:25.548Z,1.00
2023-01-25T16:31:53.825Z,1.00
2023-01-25T16:34:20.949Z,1.00
2023-01-25T16:36:50.527Z,1.00
2023-01-25T16:39:23.320Z,1.10
2023-01-25T16:41:50.312Z,1.30
2023-01-25T16:44:17.537Z,1.30
2023-01-25T16:46:44.339Z,1.10
2023-01-25T16:49:16.383Z,1.20
2023-01-25T16:51:45.200Z,1.10
2023-01-25T16:54:12.212Z,1.10
2023-01-25T16:56:39.059Z,0.80
2023-01-25T16:59:06.401Z,0.70
2023-01-25T17:01:33.459Z,1.00
2023-01-25T17:04:00.204Z,1.00
2023-01-25T17:06:32.239Z,0.90
2023-01-25T17:09:09.430Z,0.90
2023-01-25T17:11:39.791Z,1.00
2023-01-25T17:14:07.361Z,0.90
2023-01-25T17:16:34.214Z,0.60
2023-01-25T17:19:06.916Z,0.80
2023-01-25T17:21:34.202Z,0.70
2023-01-25T17:24:02.284Z,0.70
2023-01-25T17:26:30.611Z,0.60
2023-01-25T17:28:58.516Z,0.30
2023-01-25T17:31:28.361Z,0.40
2023-01-25T17:33:56.371Z,0.30
2023-01-25T17:36:22.988Z,0.40
2023-01-25T17:38:49.713Z,0.50
2023-01-25T17:41:17.168Z,0.50
2023-01-25T17:43:44.011Z,0.50
2023-01-25T17:46:16.903Z,0.50
2023-01-25T17:48:44.676Z,0.70
2023-01-25T17:51:11.366Z,0.60
2023-01-25T17:53:37.932Z,0.70
2023-01-25T17:56:07.060Z,0.60
2023-01-25T17:58:37.214Z,0.60
2023-01-25T18:01:25.181Z,0.60
2023-01-25T18:03:53.363Z,0.60
2023-01-25T18:06:24.807Z,0.60
2023-01-25T18:08:53.897Z,0.50
2023-01-25T18:11:24.436Z,0.40
2023-01-25T18:13:53.166Z,0.50
2023-01-25T18:16:23.799Z,0.50
2023-01-25T18:18:52.842Z,0.40
2023-01-25T18:21:25.698Z,0.50
2023-01-25T18:23:54.742Z,0.50
2023-01-25T18:26:24.058Z,0.30
2023-01-25T18:28:53.124Z,0.40
2023-01-25T18:31:19.868Z,0.10
2023-01-25T18:33:46.530Z,0.20
2023-01-25T18:36:17.896Z,0.40
2023-01-25T18:38:44.927Z,0.30
2023-01-25T18:41:12.155Z,0.40
2023-01-25T18:43:38.844Z,0.40
2023-01-25T18:46:05.661Z,0.30
2023-01-25T18:48:32.383Z,0.50
2023-01-25T18:51:04.828Z,0.30
2023-01-25T18:53:33.183Z,0.50
2023-01-25T18:56:02.577Z,0.30
2023-01-25T18:58:30.811Z,0.40
2023-01-25T19:01:05.921Z,0.60
2023-01-25T19:03:33.049Z,0.40
2023-01-25T19:05:59.712Z,0.60
2023-01-25T19:08:27.280Z,0.60
2023-01-25T19:11:01.885Z,0.60
2023-01-25T19:13:32.132Z,0.70
2023-01-25T19:16:03.905Z,0.60
2023-01-25T19:18:32.824Z,0.50
2023-01-25T19:20:59.828Z,0.40
2023-01-25T19:23:26.810Z,0.50
2023-01-25T19:25:56.506Z,0.50
2023-01-25T19:28:23.756Z,0.60
2023-01-25T19:30:50.676Z,0.60
2023-01-25T19:33:17.556Z,0.80
2023-01-25T19:35:44.175Z,0.90
2023-01-25T19:38:10.829Z,0.80
2023-01-25T19:40:37.522Z,1.00
2023-01-25T19:43:04.400Z,0.90
2023-01-25T19:45:31.985Z,0.70
2023-01-25T19:47:58.626Z,0.70
2023-01-25T19:50:25.290Z,0.80
2023-01-25T19:52:51.894Z,0.80
2023-01-25T19:55:18.516Z,1.00
2023-01-25T19:57:46.231Z,0.80
2023-01-25T20:00:13.542Z,0.90
2023-01-25T20:02:40.360Z,0.80
2023-01-25T20:05:07.397Z,0.80
2023-01-25T20:07:34.051Z,0.70
2023-01-25T20:10:00.617Z,0.40
2023-01-25T20:12:27.227Z,0.10
2023-01-25T20:14:53.926Z,0.20
2023-01-25T20:17:20.534Z,0.30
2023-01-25T20:19:47.887Z,0.50
2023-01-25T20:22:14.571Z,0.50
2023-01-25T20:24:41.190Z,0.50
2023-01-25T20:27:07.822Z,0.40
2023-01-25T20:29:34.461Z,0.30
2023-01-25T20:32:03.126Z,0.40
2023-01-25T20:34:29.716Z,0.50
2023-01-25T20:36:56.293Z,0.40
2023-01-25T20:39:23.119Z,0.40
2023-01-25T20:41:53.225Z,0.20
2023-01-25T20:44:19.995Z,0.20
2023-01-25T20:46:46.684Z,0.20
2023-01-25T20:49:17.937Z,0.30
2023-01-25T20:51:45.132Z,0.30
2023-01-25T20:54:11.783Z,0.40
2023-01-25T20:56:39.164Z,0.50
2023-01-25T20:59:06.079Z,0.40
2023-01-25T21:01:36.561Z,0.50
2023-01-25T21:04:04.546Z,0.50
2023-01-25T21:06:31.135Z,0.50
2023-01-25T21:08:59.124Z,0.40
2023-01-25T21:11:26.320Z,0.40
2023-01-25T21:13:53.931Z,0.40
2023-01-25T21:16:21.943Z,0.20
2023-01-25T21:18:54.578Z,0.20
2023-01-25T21:21:22.627Z,0.10
2023-01-25T21:23:50.325Z,-0.10
2023-01-25T21:26:22.085Z,-0.10
2023-01-25T21:28:49.878Z,-0.10
2023-01-25T21:31:20.670Z,0.10
2023-01-25T21:33:48.376Z,-0.10
2023-01-25T21:36:16.507Z,0.00
2023-01-25T21:38:45.928Z,0.00
2023-01-25T21:41:16.230Z,0.30
2023-01-25T21:44:01.206Z,0.40
2023-01-25T21:46:28.497Z,0.40
2023-01-25T21:49:18.649Z,0.30
2023-01-25T21:51:51.766Z,0.00
2023-01-25T21:54:23.881Z,0.00
2023-01-25T21:56:52.166Z,-0.20
2023-01-25T21:59:18.871Z,-0.30
2023-01-25T22:01:46.321Z,-0.20
2023-01-25T22:04:14.272Z,-0.30
2023-01-25T22:06:41.417Z,-0.20
2023-01-25T22:09:08.385Z,0.00
2023-01-25T22:11:35.695Z,0.10
2023-01-25T22:14:02.410Z,0.10
2023-01-25T22:16:30.148Z,0.20
2023-01-25T22:18:57.466Z,0.30
2023-01-25T22:21:27.268Z,0.30
2023-01-25T22:23:53.979Z,0.30
2023-01-25T22:26:22.744Z,0.00
2023-01-25T22:28:56.915Z,0.00
2023-01-25T22:31:26.420Z,0.00
2023-01-25T22:33:55.270Z,-0.20
2023-01-25T22:36:23.529Z,-0.20
2023-01-25T22:38:50.936Z,0.00
2023-01-25T22:41:20.029Z,0.00
2023-01-25T22:43:47.088Z,0.20
2023-01-25T22:46:18.101Z,0.10
2023-01-25T22:48:44.955Z,0.00
2023-01-25T22:51:25.073Z,0.00
2023-01-25T22:53:52.518Z,0.00
2023-01-25T22:56:24.880Z,-0.10
2023-01-25T22:58:52.537Z,0.10
2023-01-25T23:01:21.385Z,0.10
2023-01-25T23:03:49.141Z,0.10
2023-01-25T23:06:18.641Z,0.20
2023-01-25T23:08:46.401Z,0.20
2023-01-25T23:11:21.816Z,0.10
2023-01-25T23:14:07.220Z,0.00
2023-01-25T23:16:35.242Z,0.00
2023-01-25T23:19:03.675Z,-0.10
2023-01-25T23:21:31.118Z,-0.10
2023-01-25T23:24:03.228Z,-0.10
2023-01-25T23:26:37.307Z,0.00
2023-01-25T23:29:06.212Z,0.00
2023-01-25T23:31:32.956Z,0.50
2023-01-25T23:34:01.964Z,0.40
2023-01-25T23:36:38.665Z,0.50
2023-01-25T23:39:05.595Z,0.50
2023-01-25T23:41:32.268Z,0.70
2023-01-25T23:43:59.637Z,0.50
2023-01-25T23:46:27.378Z,0.50
2023-01-25T23:48:54.120Z,0.60
2023-01-25T23:51:20.761Z,0.60
2023-01-25T23:53:47.735Z,0.90
2023-01-25T23:56:17.277Z,1.10
2023-01-25T23:58:44.440Z,1.00
